East Sutton Ridge, Vermont
Current Conditions -  °F | °C
As of 9:35 AM on Wednesday 22 Oct 2014 (Local Time) from KCDA Reporting Station
Overcast Overcast  
Wind Chill: 45°   Ceiling: 2200
Heat Index: 48°   Visibility: 10mi
Dew Point: 42°   Wind: 7mph
Humidity: 78%   Direction: 360°N
Pressure: 30.2"   Gusts: 16mph
Location:  44.6632°N, 72.0391°W
Report Text: KCDA 221335Z AUTO 36006G14KT 10SM SCT017 BKN022 OVC055 09/05 A3020 RMK AO2 T00910054
Loading
Personal Weather Stations






























Interactive Weather Map New forecast layout! Learn more

10-Day Weather Forecast

Advertisements
Track Severe Weather on mobile